Argonne, IL

4:27 PM CDT on August 30, 2015 (GMT -0500)
Bolingbrook - Royce Road | | Change Station
CLOSE
Current Station
Personal Weather Station
Location: Bolingbrook, IL
Elevation: 653 ft
Nearby Weather Stations

Elev 653 ft 41.72 °N, 88.07 °W | Updated 2 seconds ago

Mostly Cloudy
Mostly Cloudy
82.8 °F
Feels Like 84 °F
N
1.2
Wind Variable Wind from South
Gusts 3.0 mph

Today
High -- | Low -- °F
--% Chance of Precip.
Yesterday
High -- | Low -- °F
Precip. -- in
6:15 AM 7:29 PM
Full, 98% visible
Pressure 30.03 in
Visibility 10.0 miles
Clouds Scattered Clouds 3400 ft
Heat Index 84 °F
Dew Point 64 °F
Humidity 54%
Rainfall 0.00 in
Snow Depth Not available.
UV 3 out of 12
Pollen 9.30 out of 12
Air Quality Not available.
Flu Activity Not available.
METAR KLOT 302115Z AUTO 00000KT 10SM SCT034 25/17 A3003 RMK AO2 T02450170
Pressure 30.03 in
Visibility 10.0 miles
Clouds Scattered Clouds 3400 ft
Heat Index 84 °F
Dew Point 64 °F
Humidity 54%
Rainfall 0.00 in
Snow Depth Not available.
UV 3 out of 12
Pollen 9.30 out of 12
Air Quality Not available.
Flu Activity Not available.
METAR KLOT 302115Z AUTO 00000KT 10SM SCT034 25/17 A3003 RMK AO2 T02450170

10-Day Weather Forecast

×

Almanac

Astronomy

Aug. 30, 2015 Rise Set
Actual Time
Civil Twilight
Nautical Twilight
Astronomical Twilight
Moon
Length of Visible Light
Length of Day
Tomorrow will be .
, % of the Moon is Illuminated

Today's Extremes

State Highs State Lows

Community

WunderPhotos

Upload Photos

1,851,063 photos uploaded!

WunderBlogs® & News

Nearby

Air Quality

  Air Quality AQ Index Pollutant
Not available.

Snow Depth

Station Depth Elevation

Earthquake Activity

City Distance Mag. Time & Date
Minimum magnitude displayed is 2.5.

Coastal Water Temperatures

Place Temperature

Stations

Nearby Weather Stations

Station Location Temp. Windchill Dew Point Humidity Wind Precip. Elev Updated Type